Terminal Aerodrome Forecast
Issued by NWS Newport/Morehead City, NC

Home | Current Version | Previous Version | Text Only | Print | Product List | Glossary On
Versions: 1 2 3 4 5 6 7 8 9 10 11 12 13 14 15 16 17 18 19 20 21 22 23 24 25 26 27 28 29 30
000
FTUS42 KMHX 242300
TAFEWN
TAF
KEWN 242320Z 2500/2524 18008KT P6SM BKN070
     FM250300 23010KT 5SM BR VCSH OVC020
      TEMPO 2503/2507 3SM SHRA BR OVC007
     FM251100 27010G15KT P6SM OVC040
     FM251600 29008KT P6SM SCT250=

USA.gov is the U.S. government's official web portal to all federal, state and local government web resources and services.